sensor_id;sensor_type;location;lat;lon;timestamp;pressure;altitude;pressure_sealevel;temperature;humidity
69318;BME280;56457;52.190;4.440;2023-05-10T00:00:41;101042.78;;;11.37;100.00
69318;BME280;56457;52.190;4.440;2023-05-10T00:01:42;101040.16;;;11.35;100.00
69318;BME280;56457;52.190;4.440;2023-05-10T00:02:42;101037.56;;;11.32;100.00
69318;BME280;56457;52.190;4.440;2023-05-10T00:03:42;101044.53;;;11.35;100.00
69318;BME280;56457;52.190;4.440;2023-05-10T00:04:43;101037.56;;;11.32;100.00
69318;BME280;56457;52.190;4.440;2023-05-10T00:05:43;101037.56;;;11.30;100.00
69318;BME280;56457;52.190;4.440;2023-05-10T00:06:43;101037.56;;;11.32;100.00
69318;BME280;56457;52.190;4.440;2023-05-10T00:07:43;101034.94;;;11.30;100.00
69318;BME280;56457;52.190;4.440;2023-05-10T00:08:46;101033.19;;;11.28;100.00
69318;BME280;56457;52.190;4.440;2023-05-10T00:09:47;101033.25;;;11.25;100.00
69318;BME280;56457;52.190;4.440;2023-05-10T00:10:47;101034.09;;;11.25;100.00
69318;BME280;56457;52.190;4.440;2023-05-10T00:11:47;101030.59;;;11.23;100.00
69318;BME280;56457;52.190;4.440;2023-05-10T00:12:48;101022.72;;;11.25;100.00
69318;BME280;56457;52.190;4.440;2023-05-10T00:13:48;101026.22;;;11.24;100.00
69318;BME280;56457;52.190;4.440;2023-05-10T00:14:48;101028.84;;;11.24;100.00
69318;BME280;56457;52.190;4.440;2023-05-10T00:15:48;101030.63;;;11.20;100.00
69318;BME280;56457;52.190;4.440;2023-05-10T00:16:49;101019.25;;;11.20;100.00
69318;BME280;56457;52.190;4.440;2023-05-10T00:17:49;101019.28;;;11.18;100.00
69318;BME280;56457;52.190;4.440;2023-05-10T00:18:50;101020.16;;;11.16;100.00
69318;BME280;56457;52.190;4.440;2023-05-10T00:19:50;101019.28;;;11.18;100.00
69318;BME280;56457;52.190;4.440;2023-05-10T00:20:50;101025.38;;;11.17;100.00
69318;BME280;56457;52.190;4.440;2023-05-10T00:21:50;101023.66;;;11.19;100.00
69318;BME280;56457;52.190;4.440;2023-05-10T00:22:51;101016.63;;;11.20;100.00
69318;BME280;56457;52.190;4.440;2023-05-10T00:23:51;101010.50;;;11.21;100.00
69318;BME280;56457;52.190;4.440;2023-05-10T00:24:51;101017.50;;;11.20;100.00
69318;BME280;56457;52.190;4.440;2023-05-10T00:25:52;101021.88;;;11.21;100.00
69318;BME280;56457;52.190;4.440;2023-05-10T00:26:52;101022.72;;;11.23;100.00
69318;BME280;56457;52.190;4.440;2023-05-10T00:27:52;101028.88;;;11.21;100.00
69318;BME280;56457;52.190;4.440;2023-05-10T00:28:55;101012.28;;;11.19;100.00
69318;BME280;56457;52.190;4.440;2023-05-10T00:29:55;101017.50;;;11.17;100.00
69318;BME280;56457;52.190;4.440;2023-05-10T00:30:55;101017.50;;;11.17;100.00
69318;BME280;56457;52.190;4.440;2023-05-10T00:31:56;101027.16;;;11.17;100.00
69318;BME280;56457;52.190;4.440;2023-05-10T00:32:56;101027.13;;;11.21;100.00
69318;BME280;56457;52.190;4.440;2023-05-10T00:33:56;101032.38;;;11.24;100.00
69318;BME280;56457;52.190;4.440;2023-05-10T00:34:56;101032.34;;;11.27;100.00
69318;BME280;56457;52.190;4.440;2023-05-10T00:35:57;101025.34;;;11.26;100.00
69318;BME280;56457;52.190;4.440;2023-05-10T00:36:57;101023.59;;;11.25;100.00
69318;BME280;56457;52.190;4.440;2023-05-10T00:37:58;101026.22;;;11.24;100.00
69318;BME280;56457;52.190;4.440;2023-05-10T00:38:58;101030.63;;;11.20;100.00
69318;BME280;56457;52.190;4.440;2023-05-10T00:39:59;101021.00;;;11.21;100.00
69318;BME280;56457;52.190;4.440;2023-05-10T00:40:59;101022.75;;;11.22;100.00
69318;BME280;56457;52.190;4.440;2023-05-10T00:41:59;101020.09;;;11.26;100.00
69318;BME280;56457;52.190;4.440;2023-05-10T00:43:00;101017.47;;;11.25;100.00
69318;BME280;56457;52.190;4.440;2023-05-10T00:44:01;101011.34;;;11.23;100.00
69318;BME280;56457;52.190;4.440;2023-05-10T00:45:02;101012.28;;;11.19;100.00
69318;BME280;56457;52.190;4.440;2023-05-10T00:46:03;101012.28;;;11.14;100.00
69318;BME280;56457;52.190;4.440;2023-05-10T00:47:03;101013.19;;;11.10;100.00
69318;BME280;56457;52.190;4.440;2023-05-10T00:48:03;101014.97;;;11.05;100.00
69318;BME280;56457;52.190;4.440;2023-05-10T00:49:04;101011.53;;;11.00;100.00
69318;BME280;56457;52.190;4.440;2023-05-10T00:50:05;101015.03;;;10.97;100.00
69318;BME280;56457;52.190;4.440;2023-05-10T00:51:06;101011.56;;;10.95;100.00
69318;BME280;56457;52.190;4.440;2023-05-10T00:52:06;101012.44;;;10.94;100.00
69318;BME280;56457;52.190;4.440;2023-05-10T00:53:07;101014.19;;;10.94;100.00
69318;BME280;56457;52.190;4.440;2023-05-10T00:54:07;101012.44;;;10.94;100.00
69318;BME280;56457;52.190;4.440;2023-05-10T00:55:07;101015.97;;;10.93;100.00
69318;BME280;56457;52.190;4.440;2023-05-10T00:56:09;101020.31;;;10.93;100.00
69318;BME280;56457;52.190;4.440;2023-05-10T00:57:10;101021.22;;;10.93;100.00
69318;BME280;56457;52.190;4.440;2023-05-10T00:58:11;101022.94;;;10.94;100.00
69318;BME280;56457;52.190;4.440;2023-05-10T00:59:12;101021.22;;;10.93;100.00
69318;BME280;56457;52.190;4.440;2023-05-10T01:00:12;101029.91;;;10.97;100.00
69318;BME280;56457;52.190;4.440;2023-05-10T01:01:17;101033.38;;;10.99;100.00
69318;BME280;56457;52.190;4.440;2023-05-10T01:02:19;101032.53;;;11.01;100.00
69318;BME280;56457;52.190;4.440;2023-05-10T01:03:19;101035.16;;;10.98;100.00
69318;BME280;56457;52.190;4.440;2023-05-10T01:04:20;101039.53;;;11.01;100.00
69318;BME280;56457;52.190;4.440;2023-05-10T01:05:25;101036.06;;;10.96;100.00
69318;BME280;56457;52.190;4.440;2023-05-10T01:06:27;101038.63;;;10.99;100.00
69318;BME280;56457;52.190;4.440;2023-05-10T01:07:27;101037.78;;;11.01;100.00
69318;BME280;56457;52.190;4.440;2023-05-10T01:08:28;101041.25;;;11.03;100.00
69318;BME280;56457;52.190;4.440;2023-05-10T01:09:28;101041.25;;;11.02;100.00
69318;BME280;56457;52.190;4.440;2023-05-10T01:10:29;101042.97;;;11.04;100.00
69318;BME280;56457;52.190;4.440;2023-05-10T01:11:29;101051.72;;;11.08;100.00
69318;BME280;56457;52.190;4.440;2023-05-10T01:12:29;101050.84;;;11.12;100.00
69318;BME280;56457;52.190;4.440;2023-05-10T01:13:33;101049.94;;;11.10;100.00
69318;BME280;56457;52.190;4.440;2023-05-10T01:14:35;101051.69;;;11.11;100.00
69318;BME280;56457;52.190;4.440;2023-05-10T01:15:36;101056.94;;;11.14;100.00
69318;BME280;56457;52.190;4.440;2023-05-10T01:16:37;101056.06;;;11.15;100.00
69318;BME280;56457;52.190;4.440;2023-05-10T01:17:39;101051.66;;;11.19;100.00
69318;BME280;56457;52.190;4.440;2023-05-10T01:18:40;101057.72;;;11.24;100.00
69318;BME280;56457;52.190;4.440;2023-05-10T01:19:41;101061.25;;;11.26;100.00
69318;BME280;56457;52.190;4.440;2023-05-10T01:20:43;101061.19;;;11.29;100.00
69318;BME280;56457;52.190;4.440;2023-05-10T01:24:09;101059.44;;;11.29;100.00
69318;BME280;56457;52.190;4.440;2023-05-10T01:26:58;101071.69;;;11.37;100.00
69318;BME280;56457;52.190;4.440;2023-05-10T01:33:27;101069.75;;;11.58;100.00
69318;BME280;56457;52.190;4.440;2023-05-10T01:34:20;101079.34;;;11.64;100.00
69318;BME280;56457;52.190;4.440;2023-05-10T01:35:30;101079.34;;;11.64;100.00
69318;BME280;56457;52.190;4.440;2023-05-10T01:36:32;101074.94;;;11.68;100.00
69318;BME280;56457;52.190;4.440;2023-05-10T01:37:37;101066.09;;;11.73;100.00
69318;BME280;56457;52.190;4.440;2023-05-10T01:38:42;101073.06;;;11.79;100.00
69318;BME280;56457;52.190;4.440;2023-05-10T01:39:47;101069.53;;;11.84;100.00
69318;BME280;56457;52.190;4.440;2023-05-10T01:41:01;101074.78;;;11.86;100.00
69318;BME280;56457;52.190;4.440;2023-05-10T01:43:08;101068.66;;;11.85;100.00
69318;BME280;56457;52.190;4.440;2023-05-10T01:44:16;101067.75;;;11.88;100.00
69318;BME280;56457;52.190;4.440;2023-05-10T01:45:20;101076.47;;;11.92;100.00
69318;BME280;56457;52.190;4.440;2023-05-10T01:46:33;101072.09;;;11.91;100.00
69318;BME280;56457;52.190;4.440;2023-05-10T01:47:37;101070.38;;;11.90;100.00
69318;BME280;56457;52.190;4.440;2023-05-10T01:48:43;101066.03;;;11.87;100.00
69318;BME280;56457;52.190;4.440;2023-05-10T01:49:50;101073.84;;;11.92;100.00
69318;BME280;56457;52.190;4.440;2023-05-10T01:50:50;101069.44;;;11.95;100.00
69318;BME280;56457;52.190;4.440;2023-05-10T01:51:52;101070.28;;;11.99;100.00
69318;BME280;56457;52.190;4.440;2023-05-10T01:52:55;101079.03;;;12.01;100.00
69318;BME280;56457;52.190;4.440;2023-05-10T01:54:00;101072.03;;;12.00;100.00
69318;BME280;56457;52.190;4.440;2023-05-10T01:55:02;101075.53;;;12.00;100.00
69318;BME280;56457;52.190;4.440;2023-05-10T01:56:04;101073.81;;;11.96;100.00
69318;BME280;56457;52.190;4.440;2023-05-10T01:57:06;101072.03;;;11.98;100.00
69318;BME280;56457;52.190;4.440;2023-05-10T01:58:09;101076.38;;;12.02;100.00
69318;BME280;56457;52.190;4.440;2023-05-10T01:59:11;101071.16;;;11.99;100.00
69318;BME280;56457;52.190;4.440;2023-05-10T02:00:13;101079.03;;;12.01;100.00
69318;BME280;56457;52.190;4.440;2023-05-10T02:01:14;101072.03;;;12.00;100.00
69318;BME280;56457;52.190;4.440;2023-05-10T02:02:15;101072.91;;;12.00;100.00
69318;BME280;56457;52.190;4.440;2023-05-10T02:03:17;101079.00;;;12.05;100.00
69318;BME280;56457;52.190;4.440;2023-05-10T02:04:18;101076.31;;;12.11;100.00
69318;BME280;56457;52.190;4.440;2023-05-10T02:05:19;101077.13;;;12.15;100.00
69318;BME280;56457;52.190;4.440;2023-05-10T02:06:20;101070.19;;;12.08;100.00
69318;BME280;56457;52.190;4.440;2023-05-10T02:07:22;101073.72;;;12.07;100.00
69318;BME280;56457;52.190;4.440;2023-05-10T02:08:23;101076.28;;;12.10;100.00
69318;BME280;56457;52.190;4.440;2023-05-10T02:09:25;101073.59;;;12.16;100.00
69318;BME280;56457;52.190;4.440;2023-05-10T02:10:27;101073.59;;;12.16;100.00
69318;BME280;56457;52.190;4.440;2023-05-10T02:11:28;101081.50;;;12.16;100.00
69318;BME280;56457;52.190;4.440;2023-05-10T02:12:28;101071.00;;;12.13;100.00
69318;BME280;56457;52.190;4.440;2023-05-10T02:13:29;101072.78;;;12.11;100.00
69318;BME280;56457;52.190;4.440;2023-05-10T02:14:34;101077.16;;;12.13;100.00
69318;BME280;56457;52.190;4.440;2023-05-10T02:15:35;101083.22;;;12.17;100.00
69318;BME280;56457;52.190;4.440;2023-05-10T02:16:36;101076.25;;;12.15;100.00
69318;BME280;56457;52.190;4.440;2023-05-10T02:17:38;101080.66;;;12.14;100.00
69318;BME280;56457;52.190;4.440;2023-05-10T02:18:39;101090.25;;;12.17;100.00
69318;BME280;56457;52.190;4.440;2023-05-10T02:19:41;101085.84;;;12.17;100.00
69318;BME280;56457;52.190;4.440;2023-05-10T02:20:43;101082.34;;;12.20;100.00
69318;BME280;56457;52.190;4.440;2023-05-10T02:21:45;101088.47;;;12.20;100.00
69318;BME280;56457;52.190;4.440;2023-05-10T02:22:47;101082.28;;;12.23;100.00
69318;BME280;56457;52.190;4.440;2023-05-10T02:23:49;101085.78;;;12.23;100.00
69318;BME280;56457;52.190;4.440;2023-05-10T02:24:51;101077.03;;;12.24;100.00
69318;BME280;56457;52.190;4.440;2023-05-10T02:25:51;101086.63;;;12.30;100.00
69318;BME280;56457;52.190;4.440;2023-05-10T02:26:53;101084.88;;;12.30;100.00
69318;BME280;56457;52.190;4.440;2023-05-10T02:27:55;101096.25;;;12.29;100.00
69318;BME280;56457;52.190;4.440;2023-05-10T02:28:56;101086.56;;;12.33;100.00
69318;BME280;56457;52.190;4.440;2023-05-10T02:29:58;101083.03;;;12.35;100.00
69318;BME280;56457;52.190;4.440;2023-05-10T02:30:59;101085.66;;;12.35;100.00
69318;BME280;56457;52.190;4.440;2023-05-10T02:31:59;101086.56;;;12.34;100.00
69318;BME280;56457;52.190;4.440;2023-05-10T02:33:00;101090.06;;;12.36;100.00
69318;BME280;56457;52.190;4.440;2023-05-10T02:34:02;101096.19;;;12.37;100.00
69318;BME280;56457;52.190;4.440;2023-05-10T02:35:02;101097.88;;;12.43;100.00
69318;BME280;56457;52.190;4.440;2023-05-10T02:36:03;101096.13;;;12.43;100.00
69318;BME280;56457;52.190;4.440;2023-05-10T02:37:05;101103.09;;;12.46;100.00
69318;BME280;56457;52.190;4.440;2023-05-10T02:38:06;101099.56;;;12.47;100.00
69318;BME280;56457;52.190;4.440;2023-05-10T02:39:07;101098.69;;;12.48;100.00
69318;BME280;56457;52.190;4.440;2023-05-10T02:40:12;101095.19;;;12.49;100.00
69318;BME280;56457;52.190;4.440;2023-05-10T02:41:13;101093.47;;;12.42;100.00
69318;BME280;56457;52.190;4.440;2023-05-10T02:42:15;101100.59;;;12.36;100.00
69318;BME280;56457;52.190;4.440;2023-05-10T02:43:16;101098.81;;;12.35;100.00
69318;BME280;56457;52.190;4.440;2023-05-10T02:44:18;101093.63;;;12.31;100.00
69318;BME280;56457;52.190;4.440;2023-05-10T02:45:19;101099.78;;;12.30;100.00
69318;BME280;56457;52.190;4.440;2023-05-10T02:46:20;101101.53;;;12.28;100.00
69318;BME280;56457;52.190;4.440;2023-05-10T02:47:21;101096.31;;;12.26;100.00
69318;BME280;56457;52.190;4.440;2023-05-10T02:48:21;101104.22;;;12.23;100.00
69318;BME280;56457;52.190;4.440;2023-05-10T02:49:21;101098.97;;;12.22;100.00
69318;BME280;56457;52.190;4.440;2023-05-10T02:50:22;101103.34;;;12.23;100.00
69318;BME280;56457;52.190;4.440;2023-05-10T02:51:24;101101.56;;;12.23;100.00
69318;BME280;56457;52.190;4.440;2023-05-10T02:52:26;101099.00;;;12.17;100.00
69318;BME280;56457;52.190;4.440;2023-05-10T02:53:31;101105.22;;;12.13;100.00
69318;BME280;56457;52.190;4.440;2023-05-10T02:54:33;101104.34;;;12.12;100.00
69318;BME280;56457;52.190;4.440;2023-05-10T02:55:35;101103.41;;;12.15;100.00
69318;BME280;56457;52.190;4.440;2023-05-10T02:56:38;101105.19;;;12.15;100.00
69318;BME280;56457;52.190;4.440;2023-05-10T02:57:41;101107.81;;;12.18;100.00
69318;BME280;56457;52.190;4.440;2023-05-10T02:58:42;101112.22;;;12.12;100.00
69318;BME280;56457;52.190;4.440;2023-05-10T02:59:42;101100.00;;;12.07;100.00
69318;BME280;56457;52.190;4.440;2023-05-10T03:00:43;101110.50;;;12.11;100.00
69318;BME280;56457;52.190;4.440;2023-05-10T03:01:45;101107.00;;;12.08;100.00
69318;BME280;56457;52.190;4.440;2023-05-10T03:02:45;101104.38;;;12.08;100.00
69318;BME280;56457;52.190;4.440;2023-05-10T03:03:45;101108.75;;;12.09;100.00
69318;BME280;56457;52.190;4.440;2023-05-10T03:04:46;101110.47;;;12.13;100.00
69318;BME280;56457;52.190;4.440;2023-05-10T03:05:46;101108.69;;;12.15;100.00
69318;BME280;56457;52.190;4.440;2023-05-10T03:06:46;101109.53;;;12.17;100.00
69318;BME280;56457;52.190;4.440;2023-05-10T03:07:47;101113.94;;;12.18;100.00
69318;BME280;56457;52.190;4.440;2023-05-10T03:08:47;101112.22;;;12.14;100.00
69318;BME280;56457;52.190;4.440;2023-05-10T03:09:48;101106.09;;;12.10;100.00
69318;BME280;56457;52.190;4.440;2023-05-10T03:13:27;101111.41;;;12.07;100.00
69318;BME280;56457;52.190;4.440;2023-05-10T03:15:51;101115.75;;;12.10;100.00
69318;BME280;56457;52.190;4.440;2023-05-10T03:16:56;101112.22;;;12.11;100.00
69318;BME280;56457;52.190;4.440;2023-05-10T03:18:04;101114.91;;;12.08;100.00
69318;BME280;56457;52.190;4.440;2023-05-10T03:19:07;101108.78;;;12.07;100.00
69318;BME280;56457;52.190;4.440;2023-05-10T03:20:11;101111.41;;;12.04;100.00
69318;BME280;56457;52.190;4.440;2023-05-10T03:21:12;101101.78;;;12.05;100.00
69318;BME280;56457;52.190;4.440;2023-05-10T03:22:16;101109.66;;;12.06;100.00
69318;BME280;56457;52.190;4.440;2023-05-10T03:23:21;101111.38;;;12.09;100.00
69318;BME280;56457;52.190;4.440;2023-05-10T03:24:23;101109.63;;;12.08;100.00
69318;BME280;56457;52.190;4.440;2023-05-10T03:25:27;101111.34;;;12.12;100.00
69318;BME280;56457;52.190;4.440;2023-05-10T03:26:29;101110.50;;;12.11;100.00
69318;BME280;56457;52.190;4.440;2023-05-10T03:27:30;101114.88;;;12.09;100.00
69318;BME280;56457;52.190;4.440;2023-05-10T03:28:31;101118.41;;;12.07;100.00
69318;BME280;56457;52.190;4.440;2023-05-10T03:29:32;101128.94;;;12.04;100.00
69318;BME280;56457;52.190;4.440;2023-05-10T03:30:33;101122.88;;;12.00;100.00
69318;BME280;56457;52.190;4.440;2023-05-10T03:31:33;101120.25;;;11.99;100.00
69318;BME280;56457;52.190;4.440;2023-05-10T03:32:34;101128.13;;;11.97;100.00
69318;BME280;56457;52.190;4.440;2023-05-10T03:33:34;101122.00;;;11.97;100.00
69318;BME280;56457;52.190;4.440;2023-05-10T03:34:36;101128.13;;;11.97;100.00
69318;BME280;56457;52.190;4.440;2023-05-10T03:35:41;101121.16;;;11.95;100.00
69318;BME280;56457;52.190;4.440;2023-05-10T03:36:41;101124.69;;;11.94;100.00
69318;BME280;56457;52.190;4.440;2023-05-10T03:37:41;101121.16;;;11.92;100.00
69318;BME280;56457;52.190;4.440;2023-05-10T03:38:42;101122.94;;;11.93;100.00
69318;BME280;56457;52.190;4.440;2023-05-10T03:39:42;101126.41;;;11.95;100.00
69318;BME280;56457;52.190;4.440;2023-05-10T03:40:42;101133.44;;;11.94;100.00
69318;BME280;56457;52.190;4.440;2023-05-10T03:41:43;101129.00;;;11.98;100.00
69318;BME280;56457;52.190;4.440;2023-05-10T03:42:43;101122.91;;;11.96;100.00
69318;BME280;56457;52.190;4.440;2023-05-10T03:43:43;101120.25;;;11.99;100.00
69318;BME280;56457;52.190;4.440;2023-05-10T03:44:43;101122.84;;;12.02;100.00
69318;BME280;56457;52.190;4.440;2023-05-10T03:45:44;101116.66;;;12.04;100.00
69318;BME280;56457;52.190;4.440;2023-05-10T03:46:44;101109.69;;;12.02;100.00
69318;BME280;56457;52.190;4.440;2023-05-10T03:47:44;101123.72;;;12.02;100.00
69318;BME280;56457;52.190;4.440;2023-05-10T03:48:45;101110.53;;;12.04;100.00
69318;BME280;56457;52.190;4.440;2023-05-10T03:49:45;101120.13;;;12.09;100.00
69318;BME280;56457;52.190;4.440;2023-05-10T03:50:45;101114.00;;;12.12;100.00
69318;BME280;56457;52.190;4.440;2023-05-10T03:51:45;101119.19;;;12.17;100.00
69318;BME280;56457;52.190;4.440;2023-05-10T03:52:46;101119.25;;;12.12;100.00
69318;BME280;56457;52.190;4.440;2023-05-10T03:53:46;101123.63;;;12.13;100.00
69318;BME280;56457;52.190;4.440;2023-05-10T03:54:46;101112.28;;;12.06;100.00
69318;BME280;56457;52.190;4.440;2023-05-10T03:55:47;101116.63;;;12.09;100.00
69318;BME280;56457;52.190;4.440;2023-05-10T03:56:47;101109.66;;;12.03;100.00
69318;BME280;56457;52.190;4.440;2023-05-10T03:57:48;101113.22;;;12.01;100.00
69318;BME280;56457;52.190;4.440;2023-05-10T03:58:49;101121.09;;;12.01;100.00
69318;BME280;56457;52.190;4.440;2023-05-10T03:59:50;101119.34;;;12.01;100.00
69318;BME280;56457;52.190;4.440;2023-05-10T04:00:50;101120.22;;;12.02;100.00
69318;BME280;56457;52.190;4.440;2023-05-10T04:01:51;101119.38;;;12.00;100.00
69318;BME280;56457;52.190;4.440;2023-05-10T04:02:51;101127.25;;;12.00;100.00
69318;BME280;56457;52.190;4.440;2023-05-10T04:03:52;101122.91;;;11.96;100.00
69318;BME280;56457;52.190;4.440;2023-05-10T04:04:52;101125.50;;;11.99;100.00
69318;BME280;56457;52.190;4.440;2023-05-10T04:06:01;101126.41;;;11.95;100.00
69318;BME280;56457;52.190;4.440;2023-05-10T04:07:02;101121.16;;;11.92;100.00
69318;BME280;56457;52.190;4.440;2023-05-10T04:08:03;101124.69;;;11.94;100.00
69318;BME280;56457;52.190;4.440;2023-05-10T04:09:03;101129.91;;;11.97;100.00
69318;BME280;56457;52.190;4.440;2023-05-10T04:10:04;101131.63;;;11.98;100.00
69318;BME280;56457;52.190;4.440;2023-05-10T04:11:08;101125.53;;;11.94;100.00
69318;BME280;56457;52.190;4.440;2023-05-10T04:12:09;101133.47;;;11.93;100.00
69318;BME280;56457;52.190;4.440;2023-05-10T04:13:09;101130.81;;;11.93;100.00
69318;BME280;56457;52.190;4.440;2023-05-10T04:14:10;101130.00;;;11.88;100.00
69318;BME280;56457;52.190;4.440;2023-05-10T04:15:10;101131.72;;;11.85;100.00
69318;BME280;56457;52.190;4.440;2023-05-10T04:16:10;101137.03;;;11.82;100.00
69318;BME280;56457;52.190;4.440;2023-05-10T04:17:11;101131.78;;;11.82;100.00
69318;BME280;56457;52.190;4.440;2023-05-10T04:18:11;101134.38;;;11.84;100.00
69318;BME280;56457;52.190;4.440;2023-05-10T04:19:11;101135.28;;;11.83;100.00
69318;BME280;56457;52.190;4.440;2023-05-10T04:20:12;101131.72;;;11.89;100.00
69318;BME280;56457;52.190;4.440;2023-05-10T04:21:13;101130.84;;;11.88;100.00
69318;BME280;56457;52.190;4.440;2023-05-10T04:22:13;101129.06;;;11.93;100.00
69318;BME280;56457;52.190;4.440;2023-05-10T04:23:13;101126.44;;;11.92;100.00
69318;BME280;56457;52.190;4.440;2023-05-10T04:24:15;101122.94;;;11.90;100.00
69318;BME280;56457;52.190;4.440;2023-05-10T04:25:15;101130.91;;;11.82;100.00
69318;BME280;56457;52.190;4.440;2023-05-10T04:26:15;101117.75;;;11.83;100.00
69318;BME280;56457;52.190;4.440;2023-05-10T04:27:16;101127.41;;;11.81;100.00
69318;BME280;56457;52.190;4.440;2023-05-10T04:28:16;101127.38;;;11.80;100.00
69318;BME280;56457;52.190;4.440;2023-05-10T04:29:16;101137.06;;;11.75;100.00
69318;BME280;56457;52.190;4.440;2023-05-10T04:30:17;101129.19;;;11.73;100.00
69318;BME280;56457;52.190;4.440;2023-05-10T04:31:17;101135.28;;;11.78;100.00
69318;BME280;56457;52.190;4.440;2023-05-10T04:32:17;101139.69;;;11.81;100.00
69318;BME280;56457;52.190;4.440;2023-05-10T04:33:18;101140.53;;;11.78;100.00
69318;BME280;56457;52.190;4.440;2023-05-10T04:34:18;101144.91;;;11.79;100.00
69318;BME280;56457;52.190;4.440;2023-05-10T04:35:20;101134.41;;;11.78;100.00
69318;BME280;56457;52.190;4.440;2023-05-10T04:36:20;101144.94;;;11.81;100.00
69318;BME280;56457;52.190;4.440;2023-05-10T04:37:20;101139.66;;;11.84;100.00
69318;BME280;56457;52.190;4.440;2023-05-10T04:38:23;101147.56;;;11.82;100.00
69318;BME280;56457;52.190;4.440;2023-05-10T04:39:23;101147.53;;;11.84;100.00
69318;BME280;56457;52.190;4.440;2023-05-10T04:40:23;101158.03;;;11.85;100.00
69318;BME280;56457;52.190;4.440;2023-05-10T04:41:23;101156.28;;;11.86;100.00
69318;BME280;56457;52.190;4.440;2023-05-10T04:42:25;101153.66;;;11.88;100.00
69318;BME280;56457;52.190;4.440;2023-05-10T04:43:26;101152.78;;;11.87;100.00
69318;BME280;56457;52.190;4.440;2023-05-10T04:44:26;101151.88;;;11.90;100.00
69318;BME280;56457;52.190;4.440;2023-05-10T04:45:26;101149.28;;;11.87;100.00
69318;BME280;56457;52.190;4.440;2023-05-10T04:46:27;101151.88;;;11.88;100.00
69318;BME280;56457;52.190;4.440;2023-05-10T04:47:27;101156.28;;;11.88;100.00
69318;BME280;56457;52.190;4.440;2023-05-10T04:48:27;101152.78;;;11.79;100.00
69318;BME280;56457;52.190;4.440;2023-05-10T04:49:28;101155.41;;;11.79;100.00
69318;BME280;56457;52.190;4.440;2023-05-10T04:50:28;101153.66;;;11.80;100.00
69318;BME280;56457;52.190;4.440;2023-05-10T04:51:28;101158.94;;;11.77;100.00
69318;BME280;56457;52.190;4.440;2023-05-10T04:52:28;101156.34;;;11.75;100.00
69318;BME280;56457;52.190;4.440;2023-05-10T04:53:29;101151.94;;;11.77;100.00
69318;BME280;56457;52.190;4.440;2023-05-10T04:54:29;101156.28;;;11.80;100.00
69318;BME280;56457;52.190;4.440;2023-05-10T04:55:30;101155.44;;;11.78;100.00
69318;BME280;56457;52.190;4.440;2023-05-10T04:56:30;101158.03;;;11.79;100.00
69318;BME280;56457;52.190;4.440;2023-05-10T04:57:30;101160.69;;;11.82;100.00
69318;BME280;56457;52.190;4.440;2023-05-10T04:58:31;101160.66;;;11.85;100.00
69318;BME280;56457;52.190;4.440;2023-05-10T04:59:31;101155.41;;;11.87;100.00
69318;BME280;56457;52.190;4.440;2023-05-10T05:00:32;101158.91;;;11.84;100.00
69318;BME280;56457;52.190;4.440;2023-05-10T05:01:32;101164.16;;;11.86;100.00
69318;BME280;56457;52.190;4.440;2023-05-10T05:02:33;101160.66;;;11.89;100.00
69318;BME280;56457;52.190;4.440;2023-05-10T05:03:33;101168.50;;;11.90;100.00
69318;BME280;56457;52.190;4.440;2023-05-10T05:04:33;101157.97;;;11.92;100.00
69318;BME280;56457;52.190;4.440;2023-05-10T05:05:34;101164.13;;;11.94;100.00
69318;BME280;56457;52.190;4.440;2023-05-10T05:06:34;101172.00;;;11.94;100.00
69318;BME280;56457;52.190;4.440;2023-05-10T05:07:35;101172.84;;;11.96;100.00
69318;BME280;56457;52.190;4.440;2023-05-10T05:08:35;101174.56;;;11.98;100.00
69318;BME280;56457;52.190;4.440;2023-05-10T05:09:35;101174.59;;;11.97;100.00
69318;BME280;56457;52.190;4.440;2023-05-10T05:10:36;101180.72;;;11.99;100.00
69318;BME280;56457;52.190;4.440;2023-05-10T05:11:36;101176.34;;;11.96;100.00
69318;BME280;56457;52.190;4.440;2023-05-10T05:12:36;101175.50;;;11.94;100.00
69318;BME280;56457;52.190;4.440;2023-05-10T05:13:37;101173.75;;;11.92;100.00
69318;BME280;56457;52.190;4.440;2023-05-10T05:14:37;101181.63;;;11.96;100.00
69318;BME280;56457;52.190;4.440;2023-05-10T05:15:37;101177.25;;;11.95;100.00
69318;BME280;56457;52.190;4.440;2023-05-10T05:16:37;101178.13;;;11.96;100.00
69318;BME280;56457;52.190;4.440;2023-05-10T05:17:38;101172.84;;;11.96;100.00
69318;BME280;56457;52.190;4.440;2023-05-10T05:18:38;101174.56;;;11.98;100.00
69318;BME280;56457;52.190;4.440;2023-05-10T05:19:38;101181.59;;;12.01;100.00
69318;BME280;56457;52.190;4.440;2023-05-10T05:20:39;101170.16;;;12.03;100.00
69318;BME280;56457;52.190;4.440;2023-05-10T05:21:39;101178.09;;;11.97;100.00
69318;BME280;56457;52.190;4.440;2023-05-10T05:22:40;101174.56;;;11.98;100.00
69318;BME280;56457;52.190;4.440;2023-05-10T05:23:40;101181.59;;;11.98;100.00
69318;BME280;56457;52.190;4.440;2023-05-10T05:24:40;101179.84;;;11.98;100.00
69318;BME280;56457;52.190;4.440;2023-05-10T05:25:41;101187.72;;;12.01;100.00
69318;BME280;56457;52.190;4.440;2023-05-10T05:26:42;101189.44;;;12.05;100.00
69318;BME280;56457;52.190;4.440;2023-05-10T05:27:42;101184.22;;;12.01;100.00
69318;BME280;56457;52.190;4.440;2023-05-10T05:28:42;101186.84;;;12.01;100.00
69318;BME280;56457;52.190;4.440;2023-05-10T05:29:43;101184.22;;;11.98;100.00
69318;BME280;56457;52.190;4.440;2023-05-10T05:30:43;101185.09;;;11.97;100.00